createdAt,value
2023-05-02T00:00:29.066Z,98318.19
2023-05-02T00:02:59.942Z,98318.63
2023-05-02T00:05:30.617Z,98318.72
2023-05-02T00:08:01.669Z,98329.16
2023-05-02T00:10:32.018Z,98319.69
2023-05-02T00:13:05.089Z,98316.34
2023-05-02T00:15:35.455Z,98313.63
2023-05-02T00:18:06.261Z,98318.78
2023-05-02T00:20:36.675Z,98310.16
2023-05-02T00:23:07.307Z,98316.97
2023-05-02T00:25:37.647Z,98311.72
2023-05-02T00:28:10.648Z,98317.88
2023-05-02T00:30:45.808Z,98307.63
2023-05-02T00:33:16.645Z,98310.16
2023-05-02T00:35:47.645Z,98315.44
2023-05-02T00:38:18.154Z,98321.50
2023-05-02T00:40:51.386Z,98316.59
2023-05-02T00:43:24.606Z,98322.88
2023-05-02T00:45:55.048Z,98315.44
2023-05-02T00:48:25.538Z,98321.06
2023-05-02T00:50:57.436Z,98315.91
2023-05-02T00:53:28.105Z,98318.72
2023-05-02T00:55:58.802Z,98323.97
2023-05-02T00:58:34.732Z,98323.03
2023-05-02T01:01:23.127Z,98328.25
2023-05-02T01:04:07.906Z,98317.94
2023-05-02T01:06:52.687Z,98324.84
2023-05-02T01:09:37.982Z,98322.25
2023-05-02T01:12:11.777Z,98330.91
2023-05-02T01:14:50.102Z,98332.13
2023-05-02T01:17:22.569Z,98334.16
2023-05-02T01:19:57.587Z,98336.91
2023-05-02T01:22:31.853Z,98337.09
2023-05-02T01:25:14.496Z,98333.19
2023-05-02T01:27:59.351Z,98336.63
2023-05-02T01:30:35.903Z,98344.47
2023-05-02T01:33:08.278Z,98337.56
2023-05-02T01:35:40.712Z,98339.31
2023-05-02T01:38:11.495Z,98336.88
2023-05-02T01:40:42.436Z,98337.69
2023-05-02T01:43:14.802Z,98336.81
2023-05-02T01:45:51.814Z,98340.22
2023-05-02T01:48:24.240Z,98344.69
2023-05-02T01:50:55.599Z,98336.19
2023-05-02T01:53:29.133Z,98338.75
2023-05-02T01:56:02.112Z,98344.28
2023-05-02T01:58:34.919Z,98346.25
2023-05-02T02:01:08.728Z,98350.63
2023-05-02T02:03:39.296Z,98346.69
2023-05-02T02:06:10.258Z,98337.34
2023-05-02T02:08:40.944Z,98341.66
2023-05-02T02:11:16.264Z,98345.97
2023-05-02T02:13:52.703Z,98346.13
2023-05-02T02:16:33.421Z,98353.38
2023-05-02T02:19:09.863Z,98351.66
2023-05-02T02:21:41.398Z,98359.34
2023-05-02T02:24:13.092Z,98372.00
2023-05-02T02:26:44.229Z,98380.91
2023-05-02T02:29:14.708Z,98379.47
2023-05-02T02:31:48.029Z,98378.69
2023-05-02T02:34:18.830Z,98382.38
2023-05-02T02:37:00.133Z,98374.66
2023-05-02T02:39:45.214Z,98383.13
2023-05-02T02:42:21.771Z,98384.97
2023-05-02T02:45:01.920Z,98385.00
2023-05-02T02:47:45.293Z,98395.41
2023-05-02T02:50:35.473Z,98390.25
2023-05-02T02:53:08.954Z,98401.47
2023-05-02T02:55:50.749Z,98406.66
2023-05-02T02:58:34.902Z,98416.00
2023-05-02T03:01:09.167Z,98419.47
2023-05-02T03:03:44.797Z,98417.13
2023-05-02T03:06:15.660Z,98418.06
2023-05-02T03:08:47.531Z,98421.59
2023-05-02T03:11:22.441Z,98433.94
2023-05-02T03:13:53.185Z,98438.38
2023-05-02T03:16:41.343Z,98438.53
2023-05-02T03:19:19.072Z,98432.44
2023-05-02T03:21:49.499Z,98446.03
2023-05-02T03:24:23.774Z,98450.34
2023-05-02T03:26:59.244Z,98452.91
2023-05-02T03:29:34.816Z,98452.06
2023-05-02T03:32:05.684Z,98453.94
2023-05-02T03:34:39.296Z,98454.78
2023-05-02T03:37:09.711Z,98454.78
2023-05-02T03:39:40.139Z,98460.69
2023-05-02T03:42:10.800Z,98459.84
2023-05-02T03:44:41.220Z,98464.13
2023-05-02T03:47:13.907Z,98477.03
2023-05-02T03:49:48.456Z,98471.97
2023-05-02T03:52:19.326Z,98473.75
2023-05-02T03:54:50.969Z,98481.59
2023-05-02T03:57:22.186Z,98481.56
2023-05-02T03:59:52.836Z,98487.59
2023-05-02T04:02:30.298Z,98488.63
2023-05-02T04:05:04.331Z,98494.63
2023-05-02T04:07:35.229Z,98489.50
2023-05-02T04:10:16.497Z,98489.50
2023-05-02T04:12:51.767Z,98496.34
2023-05-02T04:15:23.212Z,98491.97
2023-05-02T04:17:56.067Z,98491.06
2023-05-02T04:20:29.243Z,98492.03
2023-05-02T04:22:59.934Z,98492.88
2023-05-02T04:25:31.722Z,98495.44
2023-05-02T04:28:05.286Z,98497.19
2023-05-02T04:30:35.891Z,98506.66
2023-05-02T04:33:12.142Z,98499.69
2023-05-02T04:35:56.371Z,98513.47
2023-05-02T04:38:38.631Z,98506.66
2023-05-02T04:41:10.644Z,98509.97
2023-05-02T04:43:47.700Z,98509.97
2023-05-02T04:46:20.815Z,98513.19
2023-05-02T04:48:51.459Z,98512.31
2023-05-02T04:51:25.894Z,98513.88
2023-05-02T04:53:56.784Z,98507.88
2023-05-02T04:56:27.370Z,98518.22
2023-05-02T04:58:57.997Z,98520.09
2023-05-02T05:01:29.983Z,98520.03
2023-05-02T05:04:01.478Z,98520.03
2023-05-02T05:06:34.907Z,98519.13
2023-05-02T05:09:06.345Z,98526.84
2023-05-02T05:11:39.852Z,98536.25
2023-05-02T05:14:10.973Z,98539.59
2023-05-02T05:16:42.884Z,98543.97
2023-05-02T05:19:13.658Z,98549.91
2023-05-02T05:21:46.779Z,98554.03
2023-05-02T05:24:20.309Z,98566.81
2023-05-02T05:26:51.855Z,98575.06
2023-05-02T05:29:22.416Z,98566.78
2023-05-02T05:31:53.793Z,98569.19
2023-05-02T05:34:25.295Z,98581.25
2023-05-02T05:37:00.880Z,98582.78
2023-05-02T05:39:31.837Z,98582.59
2023-05-02T05:42:03.945Z,98586.78
2023-05-02T05:44:35.224Z,98591.00
2023-05-02T05:47:06.215Z,98595.22
2023-05-02T05:49:38.766Z,98588.28
2023-05-02T05:52:14.190Z,98590.72
2023-05-02T05:54:45.072Z,98597.28
2023-05-02T05:57:15.735Z,98602.97
2023-05-02T05:59:47.218Z,98600.22
2023-05-02T06:02:19.825Z,98605.88
2023-05-02T06:04:50.809Z,98614.66
2023-05-02T06:07:31.097Z,98616.09
2023-05-02T06:10:01.935Z,98613.75
2023-05-02T06:12:34.833Z,98621.06
2023-05-02T06:15:05.259Z,98621.44
2023-05-02T06:17:35.731Z,98631.19
2023-05-02T06:20:06.801Z,98624.25
2023-05-02T06:22:39.985Z,98629.31
2023-05-02T06:25:11.998Z,98631.72
2023-05-02T06:27:43.233Z,98639.47
2023-05-02T06:30:15.112Z,98641.75
2023-05-02T06:32:45.770Z,98633.88
2023-05-02T06:35:16.916Z,98632.97
2023-05-02T06:37:49.963Z,98645.63
2023-05-02T06:40:20.546Z,98637.53
2023-05-02T06:42:50.864Z,98639.63
2023-05-02T06:45:21.313Z,98648.34
2023-05-02T06:47:51.694Z,98648.25
2023-05-02T06:50:23.442Z,98656.56
2023-05-02T06:52:56.806Z,98660.75
2023-05-02T06:55:27.221Z,98651.03
2023-05-02T06:57:58.165Z,98663.81
2023-05-02T07:00:28.654Z,98657.03
2023-05-02T07:02:59.168Z,98669.69
2023-05-02T07:05:29.628Z,98667.84
2023-05-02T07:08:02.594Z,98670.16
2023-05-02T07:10:33.260Z,98676.84
2023-05-02T07:13:04.067Z,98675.22
2023-05-02T07:15:34.848Z,98678.44
2023-05-02T07:18:05.306Z,98685.91
2023-05-02T07:20:35.811Z,98691.16
2023-05-02T07:23:09.218Z,98695.03
2023-05-02T07:25:40.282Z,98696.09
2023-05-02T07:28:11.164Z,98702.66
2023-05-02T07:30:41.655Z,98704.31
2023-05-02T07:33:12.084Z,98698.38
2023-05-02T07:35:42.592Z,98707.63
2023-05-02T07:38:15.641Z,98702.47
2023-05-02T07:40:47.229Z,98700.66
2023-05-02T07:43:18.017Z,98705.69
2023-05-02T07:45:48.710Z,98697.16
2023-05-02T07:48:19.168Z,98707.97
2023-05-02T07:50:49.583Z,98710.41
2023-05-02T07:53:22.624Z,98713.59
2023-05-02T07:55:53.044Z,98713.59
2023-05-02T07:58:23.367Z,98711.78
2023-05-02T08:00:53.822Z,98720.16
2023-05-02T08:03:24.515Z,98722.81
2023-05-02T08:05:55.449Z,98722.53
2023-05-02T08:08:28.428Z,98739.03
2023-05-02T08:10:59.002Z,98728.09
2023-05-02T08:13:30.045Z,98736.00
2023-05-02T08:16:00.639Z,98731.13
2023-05-02T08:18:31.292Z,98734.63
2023-05-02T08:21:01.856Z,98743.81
2023-05-02T08:23:34.873Z,98743.63
2023-05-02T08:26:05.208Z,98743.22
2023-05-02T08:28:37.181Z,98743.84
2023-05-02T08:31:07.733Z,98740.44
2023-05-02T08:33:38.154Z,98739.59
2023-05-02T08:36:15.231Z,98750.22
2023-05-02T08:38:49.663Z,98744.38
2023-05-02T08:41:21.783Z,98755.38
2023-05-02T08:43:52.317Z,98754.72
2023-05-02T08:46:26.558Z,98749.13
2023-05-02T08:48:59.243Z,98752.38
2023-05-02T08:51:32.842Z,98753.22
2023-05-02T08:54:07.660Z,98753.44
2023-05-02T08:56:38.253Z,98761.03
2023-05-02T08:59:10.285Z,98751.22
2023-05-02T09:01:44.691Z,98753.66
2023-05-02T09:04:15.868Z,98757.00
2023-05-02T09:06:46.772Z,98756.34
2023-05-02T09:09:20.298Z,98758.28
2023-05-02T09:11:52.619Z,98765.59
2023-05-02T09:14:24.050Z,98768.19
2023-05-02T09:17:01.644Z,98762.72
2023-05-02T09:19:32.118Z,98761.31
2023-05-02T09:22:05.842Z,98761.75
2023-05-02T09:24:39.076Z,98766.63
2023-05-02T09:27:09.435Z,98764.28
2023-05-02T09:29:40.980Z,98759.50
2023-05-02T09:32:11.636Z,98752.75
2023-05-02T09:34:42.078Z,98762.84
2023-05-02T09:37:13.723Z,98757.28
2023-05-02T09:40:11.352Z,98757.28
2023-05-02T09:42:42.113Z,98762.69
2023-05-02T09:45:23.060Z,98759.28
2023-05-02T09:47:54.185Z,98756.91
2023-05-02T09:50:39.629Z,98748.03
2023-05-02T09:53:12.331Z,98753.00
2023-05-02T09:55:45.474Z,98752.00
2023-05-02T09:58:26.029Z,98755.81
2023-05-02T10:00:56.589Z,98758.81
2023-05-02T10:03:28.883Z,98757.91
2023-05-02T10:05:59.998Z,98765.72
2023-05-02T10:08:32.016Z,98763.16
2023-05-02T10:11:10.944Z,98765.09
2023-05-02T10:13:43.928Z,98767.91
2023-05-02T10:16:16.363Z,98765.69
2023-05-02T10:18:51.977Z,98773.69
2023-05-02T10:21:30.336Z,98770.72
2023-05-02T10:24:01.287Z,98765.47
2023-05-02T10:26:34.652Z,98763.91
2023-05-02T10:29:05.250Z,98760.56
2023-05-02T10:31:37.951Z,98767.88
2023-05-02T10:34:10.873Z,98757.59
2023-05-02T10:36:41.580Z,98767.25
2023-05-02T10:39:12.268Z,98763.25
2023-05-02T10:41:46.249Z,98757.13
2023-05-02T10:44:16.650Z,98755.66
2023-05-02T10:46:47.958Z,98756.41
2023-05-02T10:49:18.433Z,98750.84
2023-05-02T10:51:48.799Z,98742.19
2023-05-02T10:54:26.760Z,98747.38
2023-05-02T10:57:11.375Z,98752.91
2023-05-02T10:59:43.489Z,98742.97
2023-05-02T11:02:50.135Z,98735.06
2023-05-02T11:05:21.264Z,98735.84
2023-05-02T11:07:51.703Z,98736.19
2023-05-02T11:10:29.733Z,98737.34
2023-05-02T11:13:04.289Z,98734.06
2023-05-02T11:16:02.240Z,98738.09
2023-05-02T11:19:04.486Z,98732.16
2023-05-02T11:21:39.300Z,98729.38
2023-05-02T11:24:42.346Z,98736.69
2023-05-02T11:27:41.572Z,98736.31
2023-05-02T11:30:13.889Z,98731.56
2023-05-02T11:33:16.264Z,98734.16
2023-05-02T11:35:51.382Z,98733.31
2023-05-02T11:38:24.291Z,98741.00
2023-05-02T11:40:57.836Z,98729.66
2023-05-02T11:43:31.798Z,98731.28
2023-05-02T11:46:05.604Z,98731.09
2023-05-02T11:48:36.354Z,98727.97
2023-05-02T11:51:09.685Z,98732.66
2023-05-02T11:53:44.300Z,98715.06
2023-05-02T11:56:14.806Z,98727.78
2023-05-02T11:58:47.096Z,98723.31
2023-05-02T12:01:18.521Z,98720.06
2023-05-02T12:03:49.640Z,98722.28
2023-05-02T12:06:23.009Z,98718.28
2023-05-02T12:08:55.726Z,98716.84
2023-05-02T12:11:27.738Z,98709.84
2023-05-02T12:13:58.276Z,98713.81
2023-05-02T12:16:28.799Z,98720.22
2023-05-02T12:18:59.915Z,98707.75
2023-05-02T12:21:33.575Z,98714.75
2023-05-02T12:24:04.660Z,98718.88
2023-05-02T12:26:35.006Z,98726.00
2023-05-02T12:29:07.999Z,98733.81
2023-05-02T12:31:38.463Z,98729.25
2023-05-02T12:34:09.388Z,98740.38
2023-05-02T12:36:47.876Z,98737.22
2023-05-02T12:39:18.619Z,98737.84
2023-05-02T12:41:49.247Z,98739.97
2023-05-02T12:44:19.664Z,98747.13
2023-05-02T12:47:02.452Z,98744.22
2023-05-02T12:49:33.635Z,98738.53
2023-05-02T12:52:06.898Z,98746.84
2023-05-02T12:54:37.270Z,98744.00
2023-05-02T12:57:08.070Z,98744.69
2023-05-02T12:59:38.408Z,98751.09
2023-05-02T13:02:08.803Z,98749.06
2023-05-02T13:04:40.316Z,98748.94
2023-05-02T13:07:13.919Z,98746.78
2023-05-02T13:09:44.475Z,98744.88
2023-05-02T13:12:14.837Z,98742.53
2023-05-02T13:14:45.375Z,98745.88
2023-05-02T13:17:16.329Z,98734.72
2023-05-02T13:19:57.762Z,98737.91
2023-05-02T13:22:33.802Z,98745.91
2023-05-02T13:25:04.181Z,98746.72
2023-05-02T13:27:34.681Z,98744.34
2023-05-02T13:30:07.974Z,98735.91
2023-05-02T13:32:39.690Z,98733.56
2023-05-02T13:35:14.116Z,98726.25
2023-05-02T13:37:47.111Z,98726.22
2023-05-02T13:40:17.551Z,98723.75
2023-05-02T13:42:48.317Z,98736.16
2023-05-02T13:45:18.910Z,98722.09
2023-05-02T13:47:49.562Z,98721.41
2023-05-02T13:50:20.162Z,98730.69
2023-05-02T13:52:53.304Z,98718.81
2023-05-02T13:55:23.895Z,98723.06
2023-05-02T13:57:54.224Z,98723.31
2023-05-02T14:00:24.864Z,98722.97
2023-05-02T14:02:56.497Z,98721.66
2023-05-02T14:05:26.941Z,98713.81
2023-05-02T14:07:59.959Z,98713.34
2023-05-02T14:10:30.633Z,98715.88
2023-05-02T14:13:01.016Z,98713.94
2023-05-02T14:15:31.937Z,98712.50
2023-05-02T14:18:02.452Z,98719.88
2023-05-02T14:20:32.839Z,98717.81
2023-05-02T14:23:07.619Z,98716.25
2023-05-02T14:25:42.076Z,98712.66
2023-05-02T14:28:12.394Z,98715.25
2023-05-02T14:30:42.963Z,98718.22
2023-05-02T14:33:13.411Z,98722.03
2023-05-02T14:35:43.825Z,98721.94
2023-05-02T14:38:16.755Z,98719.22
2023-05-02T14:40:47.169Z,98722.44
2023-05-02T14:43:17.553Z,98715.59
2023-05-02T14:45:48.236Z,98721.16
2023-05-02T14:48:18.700Z,98720.72
2023-05-02T14:50:49.188Z,98725.41
2023-05-02T14:53:23.634Z,98730.25
2023-05-02T14:55:54.065Z,98736.94
2023-05-02T14:58:24.595Z,98722.25
2023-05-02T15:00:55.073Z,98711.59
2023-05-02T15:03:25.865Z,98715.25
2023-05-02T15:05:56.477Z,98713.38
2023-05-02T15:08:29.694Z,98716.66
2023-05-02T15:11:00.198Z,98716.69
2023-05-02T15:13:30.789Z,98718.44
2023-05-02T15:16:01.301Z,98721.09
2023-05-02T15:18:32.376Z,98723.41
2023-05-02T15:21:02.949Z,98714.06
2023-05-02T15:23:36.040Z,98727.09
2023-05-02T15:26:10.945Z,98722.53
2023-05-02T15:28:41.751Z,98726.25
2023-05-02T15:31:12.127Z,98727.75
2023-05-02T15:33:42.636Z,98719.56
2023-05-02T15:36:13.510Z,98726.50
2023-05-02T15:38:46.580Z,98721.84
2023-05-02T15:41:17.184Z,98727.22
2023-05-02T15:43:47.564Z,98729.09
2023-05-02T15:46:17.961Z,98727.41
2023-05-02T15:48:48.446Z,98733.63
2023-05-02T15:51:19.066Z,98731.63
2023-05-02T15:53:52.763Z,98727.69
2023-05-02T15:56:23.987Z,98731.09
2023-05-02T15:58:54.649Z,98733.38
2023-05-02T16:01:25.296Z,98733.25
2023-05-02T16:03:56.498Z,98735.22
2023-05-02T16:06:27.930Z,98733.34
2023-05-02T16:09:02.196Z,98732.81
2023-05-02T16:11:33.944Z,98732.81
2023-05-02T16:14:04.278Z,98738.59
2023-05-02T16:16:35.866Z,98744.06
2023-05-02T16:19:12.731Z,98739.78
2023-05-02T16:21:44.850Z,98740.31
2023-05-02T16:24:17.844Z,98741.94
2023-05-02T16:26:48.513Z,98732.78
2023-05-02T16:29:18.850Z,98745.88
2023-05-02T16:31:49.360Z,98740.41
2023-05-02T16:34:19.767Z,98746.44
2023-05-02T16:36:50.102Z,98744.19
2023-05-02T16:39:23.072Z,98744.41
2023-05-02T16:41:53.669Z,98744.63
2023-05-02T16:44:24.058Z,98746.88
2023-05-02T16:46:55.049Z,98741.97
2023-05-02T16:49:28.494Z,98741.91
2023-05-02T16:51:59.396Z,98752.91
2023-05-02T16:54:32.444Z,98743.13
2023-05-02T16:57:04.096Z,98751.84
2023-05-02T16:59:34.475Z,98750.72
2023-05-02T17:02:04.985Z,98747.41
2023-05-02T17:04:35.539Z,98750.13
2023-05-02T17:07:08.057Z,98747.03
2023-05-02T17:09:42.154Z,98754.84
2023-05-02T17:12:14.871Z,98749.88
2023-05-02T17:14:45.279Z,98752.31
2023-05-02T17:17:17.161Z,98754.66
2023-05-02T17:19:48.566Z,98751.22
2023-05-02T17:22:21.991Z,98761.25
2023-05-02T17:24:55.311Z,98758.28
2023-05-02T17:27:25.900Z,98764.13
2023-05-02T17:29:56.349Z,98759.72
2023-05-02T17:32:26.883Z,98761.75
2023-05-02T17:34:58.882Z,98765.25
2023-05-02T17:37:30.330Z,98767.50
2023-05-02T17:40:05.165Z,98762.66
2023-05-02T17:42:35.783Z,98766.69
2023-05-02T17:45:07.574Z,98767.94
2023-05-02T17:47:38.183Z,98770.19
2023-05-02T17:50:10.814Z,98773.66
2023-05-02T17:52:41.208Z,98777.94
2023-05-02T17:55:14.608Z,98781.41
2023-05-02T17:57:45.010Z,98785.28
2023-05-02T18:00:18.977Z,98792.78
2023-05-02T18:02:49.478Z,98794.16
2023-05-02T18:05:20.427Z,98790.72
2023-05-02T18:07:50.842Z,98800.88
2023-05-02T18:10:24.006Z,98805.41
2023-05-02T18:12:54.350Z,98817.25
2023-05-02T18:15:25.010Z,98818.03
2023-05-02T18:17:56.854Z,98821.97
2023-05-02T18:20:27.385Z,98823.56
2023-05-02T18:23:01.409Z,98832.06
2023-05-02T18:25:37.534Z,98829.91
2023-05-02T18:28:08.341Z,98835.91
2023-05-02T18:30:40.295Z,98843.72
2023-05-02T18:33:11.266Z,98842.94
2023-05-02T18:35:41.751Z,98849.16
2023-05-02T18:38:12.205Z,98848.72
2023-05-02T18:40:45.707Z,98849.03
2023-05-02T18:43:16.271Z,98854.75
2023-05-02T18:45:46.784Z,98856.81
2023-05-02T18:48:17.322Z,98865.53
2023-05-02T18:50:47.757Z,98865.41
2023-05-02T18:53:19.556Z,98869.59
2023-05-02T18:55:52.690Z,98868.63
2023-05-02T18:58:23.208Z,98873.63
2023-05-02T19:00:53.866Z,98877.06
2023-05-02T19:03:24.297Z,98871.19
2023-05-02T19:05:54.707Z,98874.75
2023-05-02T19:08:25.219Z,98879.84
2023-05-02T19:10:58.214Z,98882.44
2023-05-02T19:13:28.659Z,98887.28
2023-05-02T19:15:59.214Z,98897.59
2023-05-02T19:18:29.557Z,98894.59
2023-05-02T19:21:00.734Z,98885.75
2023-05-02T19:23:31.716Z,98895.59
2023-05-02T19:26:04.716Z,98896.06
2023-05-02T19:28:35.092Z,98905.28
2023-05-02T19:31:10.719Z,98909.25
2023-05-02T19:33:41.769Z,98912.63
2023-05-02T19:36:12.140Z,98918.28
2023-05-02T19:38:42.599Z,98917.75
2023-05-02T19:41:17.018Z,98920.81
2023-05-02T19:43:47.883Z,98929.09
2023-05-02T19:46:18.592Z,98932.97
2023-05-02T19:48:49.273Z,98932.66
2023-05-02T19:51:22.163Z,98939.25
2023-05-02T19:53:52.597Z,98942.28
2023-05-02T19:56:25.810Z,98931.53
2023-05-02T19:58:56.909Z,98940.72
2023-05-02T20:01:29.402Z,98941.78
2023-05-02T20:04:00.392Z,98935.50
2023-05-02T20:06:32.101Z,98955.28
2023-05-02T20:09:02.720Z,98954.75
2023-05-02T20:11:35.683Z,98952.56
2023-05-02T20:14:06.233Z,98950.47
2023-05-02T20:16:36.681Z,98957.75
2023-05-02T20:19:07.271Z,98960.47
2023-05-02T20:21:38.078Z,98963.78
2023-05-02T20:24:09.640Z,98966.91
2023-05-02T20:26:42.707Z,98964.81
2023-05-02T20:29:13.085Z,98975.72
2023-05-02T20:31:43.705Z,98982.00
2023-05-02T20:34:14.162Z,98986.66
2023-05-02T20:36:44.687Z,98980.19
2023-05-02T20:39:16.160Z,98981.59
2023-05-02T20:41:49.809Z,98987.63
2023-05-02T20:44:22.749Z,98983.84
2023-05-02T20:46:53.629Z,98992.78
2023-05-02T20:49:24.151Z,98990.59
2023-05-02T20:51:55.042Z,98983.97
2023-05-02T20:54:25.731Z,98982.69
2023-05-02T20:56:58.912Z,98989.94
2023-05-02T20:59:29.445Z,98981.47
2023-05-02T21:02:00.170Z,98981.94
2023-05-02T21:04:30.824Z,98976.25
2023-05-02T21:07:01.222Z,98980.09
2023-05-02T21:09:31.909Z,98989.09
2023-05-02T21:12:06.424Z,98980.84
2023-05-02T21:14:37.671Z,98982.16
2023-05-02T21:17:08.089Z,98978.25
2023-05-02T21:19:38.546Z,98980.28
2023-05-02T21:22:09.017Z,98986.59
2023-05-02T21:24:39.921Z,98981.75
2023-05-02T21:27:12.946Z,98981.28
2023-05-02T21:29:43.410Z,98975.41
2023-05-02T21:32:14.001Z,98990.63
2023-05-02T21:34:44.569Z,98984.78
2023-05-02T21:37:15.068Z,98986.09
2023-05-02T21:39:45.404Z,98988.75
2023-05-02T21:42:18.498Z,98985.03
2023-05-02T21:44:48.967Z,98987.97
2023-05-02T21:47:21.525Z,98992.66
2023-05-02T21:49:52.046Z,98992.00
2023-05-02T21:52:22.839Z,98988.81
2023-05-02T21:54:53.339Z,98991.91
2023-05-02T21:57:26.567Z,98994.34
2023-05-02T21:59:56.936Z,98991.56
2023-05-02T22:02:27.864Z,98991.06
2023-05-02T22:04:58.428Z,98987.03
2023-05-02T22:07:28.801Z,99001.47
2023-05-02T22:09:59.153Z,99003.44
2023-05-02T22:12:32.602Z,99000.38
2023-05-02T22:15:02.945Z,99003.03
2023-05-02T22:17:33.311Z,99004.13
2023-05-02T22:20:04.292Z,99006.88
2023-05-02T22:22:34.853Z,99005.31
2023-05-02T22:25:05.530Z,99002.09
2023-05-02T22:27:38.658Z,99002.44
2023-05-02T22:30:12.327Z,99001.88
2023-05-02T22:32:43.562Z,99005.75
2023-05-02T22:35:14.263Z,99006.94
2023-05-02T22:37:44.637Z,99006.25
2023-05-02T22:40:16.024Z,99013.44
2023-05-02T22:42:49.053Z,99010.34
2023-05-02T22:45:19.871Z,99003.84
2023-05-02T22:47:51.603Z,99010.03
2023-05-02T22:50:22.348Z,99005.38
2023-05-02T22:52:57.366Z,99018.50
2023-05-02T22:55:28.457Z,99017.16
2023-05-02T22:58:01.506Z,99015.78
2023-05-02T23:00:32.152Z,99016.69
2023-05-02T23:03:03.325Z,99014.56
2023-05-02T23:05:34.042Z,99011.38
2023-05-02T23:08:04.439Z,99021.97
2023-05-02T23:10:34.949Z,99017.91
2023-05-02T23:13:08.088Z,99017.31
2023-05-02T23:15:39.080Z,99017.44
2023-05-02T23:18:09.860Z,99019.44
2023-05-02T23:20:40.309Z,99026.56
2023-05-02T23:23:10.711Z,99023.22
2023-05-02T23:25:41.836Z,99029.47
2023-05-02T23:28:15.036Z,99029.53
2023-05-02T23:30:45.463Z,99027.03
2023-05-02T23:33:16.615Z,99027.16
2023-05-02T23:35:47.065Z,99029.84
2023-05-02T23:38:17.631Z,99025.78
2023-05-02T23:40:48.091Z,99027.47
2023-05-02T23:43:21.368Z,99030.34
2023-05-02T23:45:51.827Z,99040.09
2023-05-02T23:48:23.160Z,99036.72
2023-05-02T23:50:54.263Z,99034.91
2023-05-02T23:53:24.795Z,99028.19
2023-05-02T23:55:55.268Z,99028.19
2023-05-02T23:58:28.185Z,99028.41
